createdAt,value
2023-04-06T00:00:35.393Z,7.00
2023-04-06T00:03:05.617Z,7.43
2023-04-06T00:05:32.435Z,7.45
2023-04-06T00:07:59.402Z,7.18
2023-04-06T00:10:26.404Z,7.10
2023-04-06T00:12:53.767Z,7.07
2023-04-06T00:15:21.231Z,7.15
2023-04-06T00:17:47.799Z,6.80
2023-04-06T00:20:14.641Z,7.07
2023-04-06T00:22:41.521Z,7.32
2023-04-06T00:25:08.505Z,6.57
2023-04-06T00:27:35.064Z,6.60
2023-04-06T00:30:01.686Z,6.95
2023-04-06T00:32:28.806Z,6.40
2023-04-06T00:34:57.591Z,6.63
2023-04-06T00:37:24.155Z,6.47
2023-04-06T00:39:53.390Z,6.10
2023-04-06T00:42:30.496Z,6.38
2023-04-06T00:44:59.535Z,6.68
2023-04-06T00:47:27.002Z,6.95
2023-04-06T00:49:54.917Z,6.85
2023-04-06T00:52:21.851Z,7.40
2023-04-06T00:54:48.466Z,7.82
2023-04-06T00:57:19.059Z,7.47
2023-04-06T00:59:45.721Z,7.03
2023-04-06T01:02:19.432Z,7.43
2023-04-06T01:04:46.208Z,7.20
2023-04-06T01:07:12.703Z,7.20
2023-04-06T01:09:42.068Z,6.95
2023-04-06T01:12:08.739Z,6.60
2023-04-06T01:14:35.689Z,7.18
2023-04-06T01:17:08.177Z,6.95
2023-04-06T01:19:35.409Z,6.63
2023-04-06T01:22:07.324Z,6.78
2023-04-06T01:27:06.781Z,7.38
2023-04-06T01:29:33.405Z,7.32
2023-04-06T01:31:59.959Z,7.50
2023-04-06T01:34:27.122Z,7.57
2023-04-06T01:36:53.627Z,7.57
2023-04-06T01:39:20.728Z,7.85
2023-04-06T01:41:50.161Z,7.80
2023-04-06T01:44:20.473Z,7.65
2023-04-06T01:46:47.067Z,7.60
2023-04-06T01:49:14.075Z,7.40
2023-04-06T01:51:41.021Z,7.63
2023-04-06T01:54:07.581Z,7.78
2023-04-06T01:56:34.255Z,7.95
2023-04-06T01:59:00.855Z,7.35
2023-04-06T02:01:27.483Z,7.63
2023-04-06T02:03:54.144Z,7.72
2023-04-06T02:06:20.863Z,7.53
2023-04-06T02:08:47.337Z,8.30
2023-04-06T02:11:13.922Z,7.72
2023-04-06T02:13:40.647Z,7.95
2023-04-06T02:16:07.546Z,7.85
2023-04-06T02:18:34.170Z,7.70
2023-04-06T02:21:01.648Z,7.97
2023-04-06T02:23:28.216Z,7.80
2023-04-06T02:25:54.764Z,8.02
2023-04-06T02:28:21.257Z,7.95
2023-04-06T02:30:47.838Z,7.75
2023-04-06T02:33:14.363Z,7.53
2023-04-06T02:35:40.987Z,8.75
2023-04-06T02:38:07.582Z,7.97
2023-04-06T02:40:34.122Z,7.97
2023-04-06T02:43:00.972Z,7.60
2023-04-06T02:45:27.489Z,8.05
2023-04-06T02:47:54.017Z,8.60
2023-04-06T02:50:20.627Z,7.85
2023-04-06T02:52:47.193Z,7.95
2023-04-06T02:55:13.740Z,8.38
2023-04-06T02:57:40.338Z,8.40
2023-04-06T03:00:07.774Z,7.78
2023-04-06T03:02:34.402Z,8.40
2023-04-06T03:05:01.032Z,8.25
2023-04-06T03:07:27.565Z,8.07
2023-04-06T03:09:54.059Z,8.32
2023-04-06T03:12:20.900Z,8.68
2023-04-06T03:14:47.411Z,8.70
2023-04-06T03:17:14.041Z,8.07
2023-04-06T03:19:40.608Z,9.05
2023-04-06T03:22:07.125Z,9.00
2023-04-06T03:24:33.912Z,8.68
2023-04-06T03:27:01.412Z,9.57
2023-04-06T03:29:28.162Z,8.52
2023-04-06T03:31:54.839Z,8.48
2023-04-06T03:34:21.550Z,8.73
2023-04-06T03:36:51.662Z,8.18
2023-04-06T03:39:26.546Z,8.65
2023-04-06T03:41:53.195Z,8.93
2023-04-06T03:44:19.753Z,8.85
2023-04-06T03:46:49.379Z,9.52
2023-04-06T03:49:16.097Z,9.68
2023-04-06T03:51:42.622Z,9.00
2023-04-06T03:54:09.144Z,9.07
2023-04-06T03:56:35.752Z,8.80
2023-04-06T03:59:02.993Z,9.43
2023-04-06T04:01:29.929Z,8.65
2023-04-06T04:03:56.742Z,9.60
2023-04-06T04:06:23.395Z,9.18
2023-04-06T04:08:51.122Z,9.65
2023-04-06T04:11:17.888Z,9.68
2023-04-06T04:13:44.838Z,8.95
2023-04-06T04:16:11.396Z,9.88
2023-04-06T04:18:38.014Z,9.50
2023-04-06T04:21:04.682Z,9.55
2023-04-06T04:23:31.222Z,9.20
2023-04-06T04:25:58.637Z,8.75
2023-04-06T04:28:25.393Z,9.68
2023-04-06T04:30:51.917Z,8.88
2023-04-06T04:33:18.466Z,9.80
2023-04-06T04:35:45.028Z,9.13
2023-04-06T04:38:11.618Z,9.27
2023-04-06T04:40:38.261Z,9.50
2023-04-06T04:43:04.803Z,9.05
2023-04-06T04:45:31.410Z,10.05
2023-04-06T04:47:58.017Z,10.05
2023-04-06T04:50:24.613Z,9.68
2023-04-06T04:52:51.838Z,10.18
2023-04-06T04:55:18.670Z,10.15
2023-04-06T04:57:47.161Z,9.00
2023-04-06T05:00:14.155Z,9.98
2023-04-06T05:02:41.013Z,9.77
2023-04-06T05:05:08.392Z,9.68
2023-04-06T05:07:35.047Z,9.63
2023-04-06T05:10:01.637Z,9.38
2023-04-06T05:12:31.269Z,9.93
2023-04-06T05:14:57.941Z,10.43
2023-04-06T05:17:24.525Z,9.93
2023-04-06T05:19:51.235Z,9.77
2023-04-06T05:22:18.642Z,9.55
2023-04-06T05:24:45.573Z,8.43
2023-04-06T05:27:12.142Z,8.20
2023-04-06T05:29:38.711Z,8.80
2023-04-06T05:32:05.961Z,9.18
2023-04-06T05:34:32.530Z,9.10
2023-04-06T05:36:59.072Z,9.05
2023-04-06T05:39:25.769Z,9.48
2023-04-06T05:41:52.275Z,9.77
2023-04-06T05:44:21.562Z,9.75
2023-04-06T05:46:48.143Z,8.70
2023-04-06T05:49:14.768Z,7.80
2023-04-06T05:51:41.327Z,8.73
2023-04-06T05:54:07.954Z,8.82
2023-04-06T05:56:34.446Z,9.52
2023-04-06T05:59:01.182Z,8.52
2023-04-06T06:01:27.689Z,9.05
2023-04-06T06:03:54.229Z,8.73
2023-04-06T06:06:20.752Z,8.60
2023-04-06T06:08:47.283Z,8.38
2023-04-06T06:11:13.806Z,7.85
2023-04-06T06:13:40.459Z,7.65
2023-04-06T06:16:07.319Z,7.57
2023-04-06T06:18:33.905Z,7.10
2023-04-06T06:21:01.182Z,6.72
2023-04-06T06:23:30.339Z,6.50
2023-04-06T06:25:59.117Z,6.40
2023-04-06T06:28:26.359Z,6.47
2023-04-06T06:30:53.112Z,7.00
2023-04-06T06:33:22.543Z,7.40
2023-04-06T06:35:49.389Z,6.85
2023-04-06T06:38:15.972Z,7.22
2023-04-06T06:40:42.588Z,6.85
2023-04-06T06:43:09.096Z,6.55
2023-04-06T06:45:35.993Z,6.75
2023-04-06T06:48:02.662Z,6.93
2023-04-06T06:50:29.744Z,6.72
2023-04-06T06:52:56.381Z,6.88
2023-04-06T06:55:22.998Z,6.50
2023-04-06T06:57:49.548Z,6.97
2023-04-06T07:00:16.366Z,6.63
2023-04-06T07:02:43.052Z,7.03
2023-04-06T07:05:23.823Z,6.50
2023-04-06T07:07:54.203Z,7.05
2023-04-06T07:10:21.312Z,6.97
2023-04-06T07:12:47.885Z,7.60
2023-04-06T07:15:14.581Z,6.93
2023-04-06T07:17:46.189Z,7.13
2023-04-06T07:20:13.675Z,6.90
2023-04-06T07:22:41.505Z,7.05
2023-04-06T07:25:08.525Z,6.95
2023-04-06T07:27:37.743Z,6.90
2023-04-06T07:30:04.522Z,6.68
2023-04-06T07:32:31.615Z,7.80
2023-04-06T07:34:59.192Z,8.63
2023-04-06T07:37:26.122Z,9.18
2023-04-06T07:39:52.640Z,8.75
2023-04-06T07:42:19.168Z,7.85
2023-04-06T07:44:49.359Z,7.63
2023-04-06T07:47:16.086Z,7.88
2023-04-06T07:49:42.615Z,7.75
2023-04-06T07:52:09.096Z,7.93
2023-04-06T07:54:35.636Z,8.38
2023-04-06T07:57:02.134Z,8.65
2023-04-06T07:59:28.726Z,8.13
2023-04-06T08:01:55.466Z,8.55
2023-04-06T08:04:22.008Z,8.85
2023-04-06T08:06:48.548Z,9.20
2023-04-06T08:09:15.114Z,9.02
2023-04-06T08:11:41.634Z,9.30
2023-04-06T08:14:08.785Z,8.10
2023-04-06T08:16:35.647Z,8.05
2023-04-06T08:19:02.239Z,8.77
2023-04-06T08:21:28.734Z,8.63
2023-04-06T08:23:55.299Z,8.35
2023-04-06T08:26:21.927Z,9.13
2023-04-06T08:28:48.529Z,9.18
2023-04-06T08:31:15.098Z,8.60
2023-04-06T08:33:41.779Z,8.25
2023-04-06T08:36:13.405Z,7.93
2023-04-06T08:38:41.086Z,8.15
2023-04-06T08:41:09.598Z,9.38
2023-04-06T08:43:48.239Z,8.88
2023-04-06T08:46:21.174Z,8.98
2023-04-06T08:48:50.910Z,8.90
2023-04-06T08:51:19.660Z,8.35
2023-04-06T08:53:47.344Z,8.88
2023-04-06T08:56:14.097Z,9.20
2023-04-06T08:58:41.523Z,9.10
2023-04-06T09:01:10.339Z,7.60
2023-04-06T09:03:41.906Z,6.88
2023-04-06T09:06:10.435Z,6.40
2023-04-06T09:08:41.779Z,6.82
2023-04-06T09:11:09.702Z,6.82
2023-04-06T09:14:08.678Z,7.10
2023-04-06T09:16:46.556Z,7.13
2023-04-06T09:19:13.629Z,6.30
2023-04-06T09:21:41.096Z,6.82
2023-04-06T09:24:09.047Z,6.22
2023-04-06T09:26:47.056Z,5.95
2023-04-06T09:29:25.272Z,7.13
2023-04-06T09:31:51.867Z,7.20
2023-04-06T09:34:23.371Z,6.80
2023-04-06T09:36:49.894Z,6.82
2023-04-06T09:39:16.392Z,6.55
2023-04-06T09:41:42.904Z,6.82
2023-04-06T09:44:15.428Z,6.85
2023-04-06T09:46:59.598Z,6.47
2023-04-06T09:49:32.401Z,6.50
2023-04-06T09:52:05.556Z,6.53
2023-04-06T09:54:33.163Z,7.32
2023-04-06T09:57:40.745Z,6.85
2023-04-06T10:00:15.515Z,6.53
2023-04-06T10:02:57.512Z,6.90
2023-04-06T10:08:02.054Z,6.80
2023-04-06T10:10:29.429Z,7.10
2023-04-06T10:12:56.851Z,6.82
2023-04-06T10:15:23.525Z,7.55
2023-04-06T10:17:50.315Z,7.38
2023-04-06T10:20:41.023Z,6.35
2023-04-06T10:23:10.978Z,6.35
2023-04-06T10:25:38.749Z,5.93
2023-04-06T10:28:09.947Z,6.65
2023-04-06T10:30:44.647Z,7.15
2023-04-06T10:33:19.232Z,6.68
2023-04-06T10:35:46.028Z,6.85
2023-04-06T10:38:15.028Z,7.43
2023-04-06T10:40:48.038Z,6.70
2023-04-06T10:43:24.289Z,7.38
2023-04-06T10:45:58.509Z,7.47
2023-04-06T10:48:26.433Z,7.75
2023-04-06T10:50:53.960Z,7.18
2023-04-06T10:53:25.363Z,7.35
2023-04-06T10:55:53.316Z,8.02
2023-04-06T10:58:20.326Z,7.30
2023-04-06T11:00:51.425Z,9.15
2023-04-06T11:03:19.172Z,7.63
2023-04-06T11:05:48.191Z,7.60
2023-04-06T11:08:34.350Z,7.97
2023-04-06T11:11:07.493Z,7.28
2023-04-06T11:13:45.124Z,7.22
2023-04-06T11:16:18.517Z,8.13
2023-04-06T11:18:49.921Z,7.82
2023-04-06T11:21:16.525Z,8.43
2023-04-06T11:23:43.023Z,7.45
2023-04-06T11:26:14.930Z,7.35
2023-04-06T11:28:44.110Z,7.97
2023-04-06T11:31:12.496Z,7.55
2023-04-06T11:33:39.756Z,8.15
2023-04-06T11:36:07.274Z,8.02
2023-04-06T11:38:34.536Z,7.18
2023-04-06T11:41:02.491Z,7.40
2023-04-06T11:43:32.367Z,8.07
2023-04-06T11:46:06.241Z,8.30
2023-04-06T11:48:32.912Z,8.27
2023-04-06T11:51:02.060Z,7.82
2023-04-06T11:53:29.983Z,8.35
2023-04-06T11:55:57.258Z,7.30
2023-04-06T11:58:23.871Z,7.70
2023-04-06T12:00:50.468Z,7.68
2023-04-06T12:03:17.162Z,7.80
2023-04-06T12:05:44.923Z,8.10
2023-04-06T12:08:11.517Z,7.53
2023-04-06T12:10:38.062Z,8.10
2023-04-06T12:13:05.533Z,7.60
2023-04-06T12:15:32.211Z,7.95
2023-04-06T12:17:58.784Z,7.63
2023-04-06T12:20:27.201Z,8.32
2023-04-06T12:22:54.337Z,8.18
2023-04-06T12:25:21.011Z,7.90
2023-04-06T12:27:48.101Z,8.05
2023-04-06T12:30:15.314Z,7.47
2023-04-06T12:32:42.283Z,7.10
2023-04-06T12:35:10.195Z,6.53
2023-04-06T12:37:37.781Z,7.07
2023-04-06T12:40:05.209Z,8.20
2023-04-06T12:42:31.893Z,8.10
2023-04-06T12:44:58.405Z,7.72
2023-04-06T12:47:27.273Z,7.45
2023-04-06T12:49:55.007Z,7.05
2023-04-06T12:52:21.732Z,8.07
2023-04-06T12:54:50.142Z,7.43
2023-04-06T12:57:18.128Z,7.35
2023-04-06T12:59:45.738Z,7.72
2023-04-06T13:02:12.664Z,7.07
2023-04-06T13:04:39.290Z,6.28
2023-04-06T13:07:06.090Z,6.25
2023-04-06T13:09:32.615Z,6.47
2023-04-06T13:11:59.111Z,7.30
2023-04-06T13:14:26.168Z,7.85
2023-04-06T13:16:52.881Z,8.00
2023-04-06T13:19:19.536Z,7.72
2023-04-06T13:21:46.375Z,7.70
2023-04-06T13:24:13.731Z,6.95
2023-04-06T13:26:41.106Z,7.00
2023-04-06T13:29:07.652Z,6.85
2023-04-06T13:31:34.258Z,6.70
2023-04-06T13:34:00.842Z,7.75
2023-04-06T13:36:27.972Z,8.40
2023-04-06T13:38:56.242Z,8.15
2023-04-06T13:41:24.528Z,8.43
2023-04-06T13:43:54.452Z,9.15
2023-04-06T13:46:21.337Z,9.15
2023-04-06T13:48:48.166Z,9.57
2023-04-06T13:51:15.961Z,9.18
2023-04-06T13:53:42.438Z,9.27
2023-04-06T13:56:11.824Z,8.98
2023-04-06T13:58:38.319Z,8.57
2023-04-06T14:01:07.322Z,9.30
2023-04-06T14:03:34.771Z,8.75
2023-04-06T14:06:05.041Z,9.05
2023-04-06T14:08:36.029Z,9.30
2023-04-06T14:11:02.530Z,8.80
2023-04-06T14:13:29.032Z,8.57
2023-04-06T14:15:56.485Z,8.73
2023-04-06T14:18:25.829Z,8.73
2023-04-06T14:20:56.967Z,8.95
2023-04-06T14:23:23.592Z,9.40
2023-04-06T14:25:50.054Z,8.10
2023-04-06T14:28:17.365Z,7.88
2023-04-06T14:30:44.639Z,8.25
2023-04-06T14:33:12.213Z,8.00
2023-04-06T14:35:41.494Z,7.82
2023-04-06T14:38:07.985Z,7.50
2023-04-06T14:40:37.097Z,6.93
2023-04-06T14:43:04.358Z,7.03
2023-04-06T14:45:33.722Z,6.45
2023-04-06T14:48:00.218Z,7.70
2023-04-06T14:50:26.731Z,8.23
2023-04-06T14:52:56.232Z,8.70
2023-04-06T14:55:22.768Z,8.85
2023-04-06T14:57:49.245Z,8.45
2023-04-06T15:00:16.287Z,8.73
2023-04-06T15:02:44.195Z,7.40
2023-04-06T15:05:11.921Z,8.43
2023-04-06T15:07:38.387Z,8.13
2023-04-06T15:10:10.785Z,7.97
2023-04-06T15:12:39.123Z,7.35
2023-04-06T15:15:06.267Z,7.03
2023-04-06T15:17:32.873Z,7.72
2023-04-06T15:19:59.385Z,7.65
2023-04-06T15:22:25.948Z,8.82
2023-04-06T15:24:52.423Z,8.75
2023-04-06T15:27:18.969Z,8.95
2023-04-06T15:29:45.691Z,9.15
2023-04-06T15:32:12.439Z,8.55
2023-04-06T15:34:38.895Z,7.50
2023-04-06T15:37:06.147Z,8.05
2023-04-06T15:39:33.303Z,7.25
2023-04-06T15:42:00.258Z,8.07
2023-04-06T15:44:27.075Z,9.00
2023-04-06T15:46:53.904Z,9.20
2023-04-06T15:49:20.839Z,8.75
2023-04-06T15:51:48.843Z,8.77
2023-04-06T15:54:21.077Z,8.88
2023-04-06T15:56:49.630Z,8.48
2023-04-06T15:59:16.826Z,8.32
2023-04-06T16:01:43.647Z,8.10
2023-04-06T16:04:11.679Z,7.13
2023-04-06T16:06:38.315Z,7.43
2023-04-06T16:09:04.815Z,7.47
2023-04-06T16:11:32.575Z,7.40
2023-04-06T16:13:59.589Z,8.55
2023-04-06T16:16:27.185Z,8.02
2023-04-06T16:18:53.846Z,9.27
2023-04-06T16:21:20.375Z,9.18
2023-04-06T16:23:50.839Z,8.68
2023-04-06T16:26:18.113Z,8.68
2023-04-06T16:28:45.057Z,9.10
2023-04-06T16:31:22.104Z,8.45
2023-04-06T16:33:56.267Z,8.43
2023-04-06T16:36:27.539Z,8.27
2023-04-06T16:38:58.506Z,8.20
2023-04-06T16:41:26.556Z,8.13
2023-04-06T16:43:53.887Z,8.25
2023-04-06T16:46:23.624Z,8.45
2023-04-06T16:48:50.115Z,8.38
2023-04-06T16:51:16.713Z,9.73
2023-04-06T16:53:43.263Z,10.70
2023-04-06T16:58:41.230Z,10.70
2023-04-06T17:01:07.808Z,9.20
2023-04-06T17:03:35.266Z,8.18
2023-04-06T17:06:01.920Z,8.85
2023-04-06T17:08:28.458Z,8.63
2023-04-06T17:11:02.654Z,8.32
2023-04-06T17:13:30.325Z,8.93
2023-04-06T17:15:56.798Z,9.65
2023-04-06T17:18:23.274Z,8.93
2023-04-06T17:20:49.720Z,8.93
2023-04-06T17:23:16.689Z,8.20
2023-04-06T17:25:43.163Z,9.70
2023-04-06T17:28:09.831Z,9.45
2023-04-06T17:30:36.334Z,8.18
2023-04-06T17:33:02.969Z,8.90
2023-04-06T17:35:29.474Z,8.63
2023-04-06T17:37:56.255Z,8.65
2023-04-06T17:40:22.730Z,9.13
2023-04-06T17:42:49.191Z,9.40
2023-04-06T17:45:15.974Z,8.85
2023-04-06T17:47:42.464Z,8.40
2023-04-06T17:50:12.561Z,8.95
2023-04-06T17:52:39.042Z,9.60
2023-04-06T17:55:05.924Z,9.68
2023-04-06T17:57:33.563Z,9.40
2023-04-06T18:00:00.054Z,10.00
2023-04-06T18:02:26.714Z,10.05
2023-04-06T18:04:53.695Z,9.77
2023-04-06T18:07:20.212Z,9.90
2023-04-06T18:09:47.358Z,9.77
2023-04-06T18:12:13.878Z,10.32
2023-04-06T18:14:41.425Z,10.27
2023-04-06T18:17:08.159Z,10.50
2023-04-06T18:19:34.702Z,10.48
2023-04-06T18:22:01.258Z,9.10
2023-04-06T18:24:41.310Z,10.43
2023-04-06T18:27:10.376Z,9.80
2023-04-06T18:29:37.198Z,9.77
2023-04-06T18:32:04.232Z,10.30
2023-04-06T18:34:30.756Z,9.90
2023-04-06T18:36:57.536Z,10.93
2023-04-06T18:39:24.009Z,10.30
2023-04-06T18:41:50.486Z,10.48
2023-04-06T18:44:16.968Z,11.05
2023-04-06T18:46:47.344Z,10.85
2023-04-06T18:49:13.861Z,10.23
2023-04-06T18:51:42.855Z,10.30
2023-04-06T18:54:09.367Z,11.18
2023-04-06T18:56:37.136Z,9.95
2023-04-06T18:59:03.836Z,10.20
2023-04-06T19:01:31.769Z,10.55
2023-04-06T19:03:59.811Z,10.27
2023-04-06T19:06:27.476Z,10.48
2023-04-06T19:08:54.116Z,10.82
2023-04-06T19:11:23.258Z,11.10
2023-04-06T19:13:53.161Z,12.48
2023-04-06T19:16:19.700Z,15.73
2023-04-06T19:18:46.248Z,14.55
2023-04-06T19:21:16.953Z,14.48
2023-04-06T19:23:45.338Z,14.23
2023-04-06T19:26:12.975Z,16.85
2023-04-06T19:28:39.901Z,17.65
2023-04-06T19:31:08.696Z,13.32
2023-04-06T19:33:36.040Z,14.18
2023-04-06T19:36:03.018Z,15.93
2023-04-06T19:38:30.268Z,18.42
2023-04-06T19:40:56.914Z,18.60
2023-04-06T19:43:23.370Z,17.00
2023-04-06T19:45:49.939Z,13.23
2023-04-06T19:48:16.418Z,18.40
2023-04-06T19:50:46.465Z,18.13
2023-04-06T19:53:13.293Z,13.35
2023-04-06T19:55:40.163Z,15.27
2023-04-06T19:58:06.982Z,13.35
2023-04-06T20:00:33.657Z,13.60
2023-04-06T20:03:00.378Z,16.50
2023-04-06T20:05:26.979Z,13.35
2023-04-06T20:07:53.537Z,13.32
2023-04-06T20:10:19.998Z,12.63
2023-04-06T20:12:46.767Z,12.32
2023-04-06T20:15:13.580Z,11.93
2023-04-06T20:17:40.220Z,13.07
2023-04-06T20:20:07.271Z,12.60
2023-04-06T20:22:33.810Z,13.73
2023-04-06T20:25:00.329Z,13.90
2023-04-06T20:27:30.357Z,13.50
2023-04-06T20:29:56.856Z,13.05
2023-04-06T20:32:23.662Z,12.60
2023-04-06T20:34:50.667Z,12.15
2023-04-06T20:37:17.687Z,11.35
2023-04-06T20:39:48.343Z,11.45
2023-04-06T20:42:14.841Z,11.73
2023-04-06T20:44:41.655Z,12.07
2023-04-06T20:47:08.141Z,12.15
2023-04-06T20:49:34.637Z,10.85
2023-04-06T20:52:02.910Z,10.77
2023-04-06T20:54:29.674Z,10.80
2023-04-06T20:57:00.413Z,10.40
2023-04-06T20:59:27.881Z,11.02
2023-04-06T21:01:54.581Z,10.70
2023-04-06T21:04:22.486Z,10.30
2023-04-06T21:06:49.806Z,11.32
2023-04-06T21:09:16.790Z,12.13
2023-04-06T21:11:43.338Z,12.57
2023-04-06T21:14:09.806Z,11.63
2023-04-06T21:16:36.683Z,11.38
2023-04-06T21:19:03.449Z,11.00
2023-04-06T21:21:30.188Z,11.68
2023-04-06T21:23:58.338Z,12.13
2023-04-06T21:26:24.852Z,11.30
2023-04-06T21:28:51.377Z,11.13
2023-04-06T21:31:19.784Z,11.82
2023-04-06T21:33:46.842Z,11.30
2023-04-06T21:36:16.428Z,10.95
2023-04-06T21:38:43.002Z,10.98
2023-04-06T21:41:09.472Z,10.48
2023-04-06T21:43:36.015Z,10.65
2023-04-06T21:46:02.895Z,11.25
2023-04-06T21:48:29.381Z,10.32
2023-04-06T21:50:55.928Z,10.13
2023-04-06T21:53:22.379Z,9.38
2023-04-06T21:55:49.215Z,10.13
2023-04-06T21:58:15.978Z,10.40
2023-04-06T22:00:42.727Z,10.40
2023-04-06T22:03:09.652Z,10.25
2023-04-06T22:05:38.290Z,10.48
2023-04-06T22:08:04.903Z,9.82
2023-04-06T22:10:34.339Z,10.45
2023-04-06T22:13:00.886Z,10.00
2023-04-06T22:15:27.361Z,10.20
2023-04-06T22:17:53.941Z,10.50
2023-04-06T22:20:24.845Z,10.18
2023-04-06T22:23:00.822Z,10.30
2023-04-06T22:25:27.399Z,10.50
2023-04-06T22:27:53.893Z,10.57
2023-04-06T22:30:23.362Z,10.27
2023-04-06T22:32:49.863Z,10.43
2023-04-06T22:35:16.435Z,10.25
2023-04-06T22:37:43.412Z,13.02
2023-04-06T22:40:13.762Z,12.35
2023-04-06T22:42:42.129Z,10.85
2023-04-06T22:45:11.955Z,9.77
2023-04-06T22:47:39.805Z,10.45
2023-04-06T22:50:10.225Z,10.73
2023-04-06T22:52:36.932Z,14.90
2023-04-06T22:55:03.505Z,13.70
2023-04-06T22:57:33.269Z,14.63
2023-04-06T23:00:00.559Z,14.95
2023-04-06T23:02:31.628Z,14.40
2023-04-06T23:05:02.202Z,13.97
2023-04-06T23:07:32.812Z,10.38
2023-04-06T23:10:02.144Z,9.88
2023-04-06T23:12:37.031Z,9.50
2023-04-06T23:15:03.738Z,9.93
2023-04-06T23:17:30.410Z,10.65
2023-04-06T23:19:56.943Z,10.35
2023-04-06T23:22:23.466Z,11.20
2023-04-06T23:24:50.118Z,10.38
2023-04-06T23:27:16.597Z,11.65
2023-04-06T23:29:45.958Z,10.85
2023-04-06T23:32:12.514Z,10.75
2023-04-06T23:34:39.042Z,11.05
2023-04-06T23:37:05.752Z,11.20
2023-04-06T23:39:32.266Z,11.27
2023-04-06T23:41:59.315Z,11.63
2023-04-06T23:44:32.502Z,12.45
2023-04-06T23:46:59.037Z,12.27
2023-04-06T23:49:26.440Z,13.05
2023-04-06T23:51:52.890Z,14.00
2023-04-06T23:54:22.445Z,14.23
2023-04-06T23:56:50.577Z,14.10
2023-04-06T23:59:17.119Z,13.90
